createdAt,value
2023-04-17T00:02:15.565Z,1.60
2023-04-17T00:04:43.806Z,1.85
2023-04-17T00:07:12.244Z,2.00
2023-04-17T00:09:40.237Z,2.13
2023-04-17T00:12:09.701Z,2.22
2023-04-17T00:14:37.844Z,2.00
2023-04-17T00:17:05.949Z,1.80
2023-04-17T00:19:33.995Z,2.17
2023-04-17T00:22:02.090Z,2.10
2023-04-17T00:24:30.412Z,1.95
2023-04-17T00:26:58.452Z,1.90
2023-04-17T00:29:27.807Z,1.95
2023-04-17T00:31:56.185Z,1.80
2023-04-17T00:34:24.145Z,1.90
2023-04-17T00:36:52.179Z,1.70
2023-04-17T00:39:20.261Z,1.92
2023-04-17T00:41:48.320Z,1.92
2023-04-17T00:44:16.269Z,2.05
2023-04-17T00:46:45.670Z,1.95
2023-04-17T00:49:14.109Z,2.15
2023-04-17T00:51:42.197Z,1.95
2023-04-17T00:54:10.681Z,1.75
2023-04-17T00:56:39.087Z,2.08
2023-04-17T00:59:09.342Z,1.70
2023-04-17T01:01:37.626Z,1.95
2023-04-17T01:04:08.175Z,2.25
2023-04-17T01:06:36.377Z,2.00
2023-04-17T01:09:05.066Z,1.88
2023-04-17T01:11:32.978Z,2.30
2023-04-17T01:14:01.013Z,2.13
2023-04-17T01:16:30.789Z,1.80
2023-04-17T01:18:58.988Z,1.80
2023-04-17T01:21:28.635Z,2.20
2023-04-17T01:23:57.892Z,1.92
2023-04-17T01:26:33.235Z,2.80
2023-04-17T01:29:01.648Z,2.03
2023-04-17T01:31:31.336Z,1.88
2023-04-17T01:34:01.421Z,1.92
2023-04-17T01:36:29.615Z,2.38
2023-04-17T01:38:57.620Z,2.15
2023-04-17T01:41:25.724Z,1.92
2023-04-17T01:43:55.106Z,1.98
2023-04-17T01:46:23.193Z,2.08
2023-04-17T01:48:51.514Z,1.83
2023-04-17T01:51:19.498Z,2.10
2023-04-17T01:53:47.500Z,2.22
2023-04-17T01:56:15.792Z,1.90
2023-04-17T01:58:43.831Z,2.15
2023-04-17T02:01:13.344Z,1.85
2023-04-17T02:03:42.097Z,1.90
2023-04-17T02:06:10.568Z,2.22
2023-04-17T02:08:38.726Z,2.20
2023-04-17T02:11:06.899Z,1.98
2023-04-17T02:13:34.824Z,1.90
2023-04-17T02:16:04.309Z,1.70
2023-04-17T02:18:33.804Z,1.83
2023-04-17T02:21:01.843Z,1.83
2023-04-17T02:23:29.979Z,1.88
2023-04-17T02:25:58.371Z,2.00
2023-04-17T02:28:26.380Z,2.15
2023-04-17T02:30:54.580Z,2.15
2023-04-17T02:33:22.671Z,2.50
2023-04-17T02:35:52.681Z,2.08
2023-04-17T02:38:25.891Z,2.10
2023-04-17T02:40:53.943Z,1.98
2023-04-17T02:43:22.160Z,2.13
2023-04-17T02:45:51.321Z,2.03
2023-04-17T02:48:19.513Z,1.98
2023-04-17T02:50:47.541Z,2.03
2023-04-17T02:53:20.579Z,1.90
2023-04-17T02:55:49.856Z,1.73
2023-04-17T02:58:21.895Z,1.98
2023-04-17T03:00:50.195Z,2.17
2023-04-17T03:03:20.062Z,2.08
2023-04-17T03:05:48.232Z,1.83
2023-04-17T03:08:16.197Z,1.77
2023-04-17T03:10:50.748Z,2.15
2023-04-17T03:13:18.998Z,1.95
2023-04-17T03:15:47.490Z,2.08
2023-04-17T03:18:15.562Z,2.58
2023-04-17T03:20:43.601Z,1.65
2023-04-17T03:23:11.727Z,2.15
2023-04-17T03:25:40.060Z,2.10
2023-04-17T03:28:10.232Z,2.15
2023-04-17T03:30:38.212Z,2.30
2023-04-17T03:33:08.636Z,1.70
2023-04-17T03:35:37.493Z,2.00
2023-04-17T03:38:08.435Z,2.67
2023-04-17T03:40:36.664Z,1.88
2023-04-17T03:43:05.707Z,2.13
2023-04-17T03:45:36.067Z,1.85
2023-04-17T03:48:04.704Z,1.92
2023-04-17T03:50:34.245Z,2.25
2023-04-17T03:53:02.342Z,1.95
2023-04-17T03:55:32.093Z,2.30
2023-04-17T03:58:01.172Z,2.88
2023-04-17T04:00:31.714Z,2.17
2023-04-17T04:03:06.035Z,2.28
2023-04-17T04:05:40.205Z,2.20
2023-04-17T04:08:09.889Z,2.15
2023-04-17T04:10:45.438Z,2.53
2023-04-17T04:13:17.281Z,2.17
2023-04-17T04:15:51.533Z,2.42
2023-04-17T04:18:23.069Z,2.10
2023-04-17T04:20:51.503Z,2.53
2023-04-17T04:23:28.127Z,2.33
2023-04-17T04:25:57.914Z,2.72
2023-04-17T04:28:33.975Z,2.38
2023-04-17T04:31:02.796Z,2.30
2023-04-17T04:33:37.958Z,2.08
2023-04-17T04:36:06.332Z,2.10
2023-04-17T04:38:36.208Z,2.55
2023-04-17T04:41:11.899Z,2.45
2023-04-17T04:43:42.938Z,2.00
2023-04-17T04:46:11.635Z,2.22
2023-04-17T04:48:45.659Z,2.53
2023-04-17T04:51:13.995Z,2.35
2023-04-17T04:53:43.222Z,2.42
2023-04-17T04:56:12.911Z,2.25
2023-04-17T04:58:41.316Z,2.20
2023-04-17T05:01:10.819Z,2.40
2023-04-17T05:03:45.967Z,3.00
2023-04-17T05:06:21.126Z,2.33
2023-04-17T05:08:54.172Z,2.22
2023-04-17T05:11:22.304Z,2.15
2023-04-17T05:13:50.741Z,2.10
2023-04-17T05:16:28.840Z,2.22
2023-04-17T05:18:58.580Z,2.22
2023-04-17T05:21:41.910Z,2.90
2023-04-17T05:24:10.137Z,1.98
2023-04-17T05:26:38.052Z,1.90
2023-04-17T05:29:07.882Z,2.10
2023-04-17T05:31:36.548Z,2.10
2023-04-17T05:34:10.828Z,2.10
2023-04-17T05:36:38.776Z,2.40
2023-04-17T05:39:06.858Z,2.35
2023-04-17T05:41:34.911Z,1.98
2023-04-17T05:44:03.079Z,1.80
2023-04-17T05:46:31.072Z,1.67
2023-04-17T05:48:59.003Z,2.30
2023-04-17T05:51:29.210Z,2.20
2023-04-17T05:53:57.335Z,1.73
2023-04-17T05:56:25.451Z,2.05
2023-04-17T05:58:54.449Z,2.38
2023-04-17T06:01:22.895Z,2.40
2023-04-17T06:03:54.230Z,2.00
2023-04-17T06:06:27.581Z,2.13
2023-04-17T06:08:56.936Z,1.95
2023-04-17T06:11:25.300Z,1.60
2023-04-17T06:13:54.117Z,2.03
2023-04-17T06:16:22.555Z,2.28
2023-04-17T06:18:50.740Z,1.95
2023-04-17T06:21:18.960Z,2.22
2023-04-17T06:23:46.996Z,2.33
2023-04-17T06:26:19.285Z,2.30
2023-04-17T06:28:48.626Z,2.13
2023-04-17T06:31:17.608Z,2.10
2023-04-17T06:33:47.726Z,2.15
2023-04-17T06:36:16.112Z,1.90
2023-04-17T06:38:48.605Z,1.67
2023-04-17T06:41:20.092Z,2.30
2023-04-17T06:43:48.078Z,2.03
2023-04-17T06:46:16.351Z,1.90
2023-04-17T06:48:44.329Z,3.15
2023-04-17T06:51:12.272Z,2.58
2023-04-17T06:53:40.341Z,2.78
2023-04-17T06:56:08.550Z,2.00
2023-04-17T06:58:43.969Z,3.33
2023-04-17T07:01:12.510Z,2.78
2023-04-17T07:03:41.174Z,2.80
2023-04-17T07:06:09.916Z,2.88
2023-04-17T07:08:37.798Z,2.47
2023-04-17T07:11:05.833Z,2.83
2023-04-17T07:13:33.804Z,2.53
2023-04-17T07:16:03.969Z,2.10
2023-04-17T07:18:32.033Z,2.83
2023-04-17T07:20:59.978Z,2.13
2023-04-17T07:23:27.931Z,2.47
2023-04-17T07:25:56.018Z,2.55
2023-04-17T07:28:24.642Z,2.40
2023-04-17T07:30:53.024Z,2.08
2023-04-17T07:33:22.541Z,2.30
2023-04-17T07:35:50.722Z,1.65
2023-04-17T07:38:18.575Z,1.88
2023-04-17T07:40:46.609Z,1.85
2023-04-17T07:43:14.454Z,1.75
2023-04-17T07:45:42.394Z,2.83
2023-04-17T07:48:11.098Z,2.30
2023-04-17T07:50:40.599Z,1.83
2023-04-17T07:53:08.575Z,2.15
2023-04-17T07:55:36.819Z,2.35
2023-04-17T07:58:04.839Z,2.42
2023-04-17T08:00:33.366Z,2.55
2023-04-17T08:03:02.228Z,2.05
2023-04-17T08:05:30.829Z,1.73
2023-04-17T08:08:01.263Z,2.03
2023-04-17T08:10:29.501Z,2.08
2023-04-17T08:12:57.502Z,2.65
2023-04-17T08:15:25.638Z,1.95
2023-04-17T08:17:53.676Z,2.08
2023-04-17T08:20:22.045Z,2.20
2023-04-17T08:22:50.167Z,2.22
2023-04-17T08:25:19.512Z,2.10
2023-04-17T08:27:47.673Z,1.65
2023-04-17T08:30:19.175Z,2.47
2023-04-17T08:32:50.472Z,1.50
2023-04-17T08:35:18.523Z,2.05
2023-04-17T08:37:47.513Z,2.05
2023-04-17T08:40:17.268Z,1.20
2023-04-17T08:42:49.586Z,1.67
2023-04-17T08:45:18.536Z,1.90
2023-04-17T08:47:46.710Z,1.70
2023-04-17T08:50:16.833Z,1.70
2023-04-17T08:52:46.491Z,2.13
2023-04-17T08:55:16.268Z,2.08
2023-04-17T08:58:01.066Z,1.73
2023-04-17T09:00:31.196Z,1.70
2023-04-17T09:03:01.190Z,1.90
2023-04-17T09:05:33.384Z,1.33
2023-04-17T09:08:13.214Z,1.70
2023-04-17T09:10:42.566Z,1.90
2023-04-17T09:13:14.486Z,1.85
2023-04-17T09:15:43.599Z,1.83
2023-04-17T09:18:30.796Z,1.70
2023-04-17T09:20:59.997Z,2.03
2023-04-17T09:23:30.827Z,1.52
2023-04-17T09:26:09.859Z,2.00
2023-04-17T09:28:40.360Z,1.83
2023-04-17T09:31:25.528Z,1.80
2023-04-17T09:33:59.004Z,1.75
2023-04-17T09:36:30.426Z,1.55
2023-04-17T09:38:59.503Z,1.60
2023-04-17T09:41:28.877Z,2.00
2023-04-17T09:44:01.916Z,2.13
2023-04-17T09:46:39.018Z,1.65
2023-04-17T09:49:11.902Z,1.77
2023-04-17T09:51:40.848Z,2.00
2023-04-17T09:54:11.931Z,2.13
2023-04-17T09:56:41.317Z,2.05
2023-04-17T09:59:11.152Z,1.77
2023-04-17T10:01:40.815Z,2.20
2023-04-17T10:04:09.251Z,2.30
2023-04-17T10:06:37.752Z,2.05
2023-04-17T10:09:05.983Z,1.55
2023-04-17T10:11:37.950Z,1.92
2023-04-17T10:14:13.167Z,1.92
2023-04-17T10:16:43.546Z,1.88
2023-04-17T10:19:29.748Z,1.90
2023-04-17T10:22:29.806Z,1.55
2023-04-17T10:25:23.560Z,1.90
2023-04-17T10:27:53.769Z,1.83
2023-04-17T10:30:24.330Z,1.92
2023-04-17T10:33:21.996Z,1.90
2023-04-17T10:35:50.497Z,1.60
2023-04-17T10:38:32.307Z,1.80
2023-04-17T10:41:04.092Z,1.60
2023-04-17T10:43:32.933Z,1.70
2023-04-17T10:46:09.864Z,1.80
2023-04-17T10:48:41.604Z,2.00
2023-04-17T10:51:43.872Z,1.40
2023-04-17T10:54:15.346Z,1.88
2023-04-17T10:56:46.089Z,1.50
2023-04-17T10:59:15.749Z,1.92
2023-04-17T11:02:00.952Z,2.10
2023-04-17T11:04:30.758Z,1.50
2023-04-17T11:06:59.624Z,1.88
2023-04-17T11:09:29.704Z,2.05
2023-04-17T11:12:01.427Z,1.40
2023-04-17T11:14:30.453Z,1.95
2023-04-17T11:16:59.972Z,2.22
2023-04-17T11:19:28.142Z,1.73
2023-04-17T11:21:58.869Z,2.17
2023-04-17T11:24:28.340Z,2.42
2023-04-17T11:26:57.808Z,2.20
2023-04-17T11:29:26.365Z,1.75
2023-04-17T11:31:56.244Z,1.85
2023-04-17T11:34:27.076Z,1.85
2023-04-17T11:36:57.444Z,1.83
2023-04-17T11:39:26.779Z,1.75
2023-04-17T11:41:57.003Z,2.08
2023-04-17T11:44:26.173Z,1.80
2023-04-17T11:46:55.490Z,1.88
2023-04-17T11:49:28.620Z,1.80
2023-04-17T11:52:00.285Z,1.77
2023-04-17T11:54:29.029Z,1.63
2023-04-17T11:57:01.744Z,1.80
2023-04-17T11:59:34.398Z,1.73
2023-04-17T12:02:03.420Z,1.90
2023-04-17T12:04:35.008Z,2.75
2023-04-17T12:07:04.246Z,1.92
2023-04-17T12:09:32.699Z,1.85
2023-04-17T12:12:01.300Z,1.75
2023-04-17T12:14:29.458Z,1.98
2023-04-17T12:16:57.453Z,2.08
2023-04-17T12:19:26.852Z,1.55
2023-04-17T12:21:56.707Z,2.20
2023-04-17T12:24:25.346Z,2.17
2023-04-17T12:26:53.768Z,1.80
2023-04-17T12:29:36.141Z,1.65
2023-04-17T12:32:04.992Z,1.95
2023-04-17T12:34:33.046Z,1.52
2023-04-17T12:37:02.383Z,1.60
2023-04-17T12:39:30.375Z,1.55
2023-04-17T12:41:58.303Z,1.98
2023-04-17T12:44:26.345Z,2.08
2023-04-17T12:46:54.590Z,2.15
2023-04-17T12:49:23.742Z,1.90
2023-04-17T12:51:51.814Z,1.98
2023-04-17T12:54:21.257Z,1.80
2023-04-17T12:56:49.472Z,1.98
2023-04-17T12:59:17.545Z,1.95
2023-04-17T13:01:45.797Z,2.75
2023-04-17T13:04:14.281Z,1.60
2023-04-17T13:06:43.030Z,1.35
2023-04-17T13:09:11.485Z,1.80
2023-04-17T13:11:41.249Z,2.10
2023-04-17T13:14:10.070Z,1.85
2023-04-17T13:16:38.190Z,1.98
2023-04-17T13:19:06.291Z,2.15
2023-04-17T13:21:34.252Z,1.60
2023-04-17T13:24:02.247Z,1.80
2023-04-17T13:26:30.709Z,1.95
2023-04-17T13:29:00.221Z,2.15
2023-04-17T13:31:28.323Z,1.60
2023-04-17T13:33:56.382Z,2.00
2023-04-17T13:36:24.400Z,2.10
2023-04-17T13:38:52.546Z,1.55
2023-04-17T13:41:20.946Z,1.67
2023-04-17T13:43:48.979Z,1.90
2023-04-17T13:46:18.573Z,1.77
2023-04-17T13:48:46.671Z,1.80
2023-04-17T13:51:14.796Z,2.30
2023-04-17T13:53:42.781Z,1.70
2023-04-17T13:56:10.852Z,2.00
2023-04-17T13:58:40.455Z,2.00
2023-04-17T14:01:08.931Z,1.75
2023-04-17T14:03:40.067Z,1.83
2023-04-17T14:06:09.377Z,1.52
2023-04-17T14:08:37.493Z,1.70
2023-04-17T14:11:05.670Z,1.38
2023-04-17T14:13:33.743Z,1.60
2023-04-17T14:16:01.962Z,1.80
2023-04-17T14:18:30.058Z,1.98
2023-04-17T14:20:59.426Z,2.30
2023-04-17T14:23:27.345Z,2.20
2023-04-17T14:25:55.376Z,1.50
2023-04-17T14:28:24.139Z,1.73
2023-04-17T14:30:52.161Z,1.92
2023-04-17T14:33:20.137Z,2.00
2023-04-17T14:35:48.138Z,1.80
2023-04-17T14:38:17.525Z,1.75
2023-04-17T14:40:45.851Z,2.22
2023-04-17T14:43:14.224Z,1.45
2023-04-17T14:45:42.368Z,1.83
2023-04-17T14:48:13.639Z,1.90
2023-04-17T14:50:44.318Z,1.70
2023-04-17T14:53:12.375Z,2.00
2023-04-17T14:55:42.114Z,1.75
2023-04-17T14:58:10.910Z,1.80
2023-04-17T15:00:39.967Z,1.58
2023-04-17T15:03:08.285Z,1.50
2023-04-17T15:05:36.397Z,1.45
2023-04-17T15:08:04.575Z,1.40
2023-04-17T15:10:48.020Z,1.98
2023-04-17T15:13:23.171Z,1.85
2023-04-17T15:15:51.220Z,1.98
2023-04-17T15:18:19.238Z,1.60
2023-04-17T15:20:47.590Z,1.88
2023-04-17T15:23:15.561Z,2.13
2023-04-17T15:25:43.558Z,3.92
2023-04-17T15:28:12.370Z,8.20
2023-04-17T15:30:41.729Z,19.13
2023-04-17T15:33:10.446Z,71.50
2023-04-17T15:35:38.707Z,97.25
2023-04-17T15:38:07.247Z,58.92
2023-04-17T15:40:35.266Z,46.10
2023-04-17T15:43:03.617Z,31.35
2023-04-17T15:45:31.920Z,27.48
2023-04-17T15:48:02.114Z,20.45
2023-04-17T15:50:30.319Z,17.05
2023-04-17T15:52:58.334Z,11.85
2023-04-17T15:55:26.336Z,11.95
2023-04-17T15:57:54.302Z,10.07
2023-04-17T16:00:22.954Z,7.50
2023-04-17T16:02:51.978Z,6.10
2023-04-17T16:05:22.476Z,6.40
2023-04-17T16:07:50.613Z,4.95
2023-04-17T16:10:19.051Z,5.00
2023-04-17T16:12:47.370Z,4.10
2023-04-17T16:15:17.859Z,4.28
2023-04-17T16:17:48.495Z,3.97
2023-04-17T16:20:16.941Z,3.30
2023-04-17T16:22:46.397Z,3.13
2023-04-17T16:25:14.481Z,2.60
2023-04-17T16:27:42.631Z,3.35
2023-04-17T16:30:11.690Z,2.80
2023-04-17T16:32:39.649Z,3.15
2023-04-17T16:35:08.378Z,3.15
2023-04-17T16:37:36.324Z,2.15
2023-04-17T16:40:06.662Z,2.70
2023-04-17T16:42:35.150Z,2.33
2023-04-17T16:45:03.125Z,2.17
2023-04-17T16:47:31.507Z,1.92
2023-04-17T16:49:59.562Z,2.00
2023-04-17T16:52:27.526Z,1.90
2023-04-17T16:54:55.460Z,2.17
2023-04-17T16:57:24.794Z,1.88
2023-04-17T16:59:52.942Z,2.22
2023-04-17T17:02:20.943Z,2.20
2023-04-17T17:04:49.852Z,2.83
2023-04-17T17:07:17.840Z,1.85
2023-04-17T17:09:45.824Z,2.17
2023-04-17T17:12:13.713Z,2.15
2023-04-17T17:14:43.097Z,1.85
2023-04-17T17:17:11.169Z,1.83
2023-04-17T17:19:39.198Z,2.42
2023-04-17T17:22:07.263Z,2.40
2023-04-17T17:24:36.165Z,1.75
2023-04-17T17:27:04.284Z,2.30
2023-04-17T17:29:32.350Z,2.40
2023-04-17T17:32:01.583Z,1.75
2023-04-17T17:34:30.455Z,2.50
2023-04-17T17:36:58.594Z,2.20
2023-04-17T17:39:26.592Z,2.00
2023-04-17T17:41:55.848Z,2.20
2023-04-17T17:44:24.088Z,1.77
2023-04-17T17:46:52.007Z,1.77
2023-04-17T17:49:21.466Z,1.80
2023-04-17T17:51:49.428Z,2.08
2023-04-17T17:54:17.401Z,2.20
2023-04-17T17:56:45.382Z,1.75
2023-04-17T17:59:13.367Z,1.92
2023-04-17T18:01:41.456Z,2.15
2023-04-17T18:04:09.656Z,2.00
2023-04-17T18:06:40.940Z,1.75
2023-04-17T18:09:08.926Z,1.77
2023-04-17T18:11:37.825Z,1.85
2023-04-17T18:14:06.578Z,2.00
2023-04-17T18:16:36.181Z,1.60
2023-04-17T18:19:05.071Z,2.10
2023-04-17T18:21:33.082Z,1.80
2023-04-17T18:24:02.787Z,1.88
2023-04-17T18:26:30.842Z,1.73
2023-04-17T18:28:58.843Z,1.33
2023-04-17T18:31:28.268Z,1.80
2023-04-17T18:33:56.370Z,1.50
2023-04-17T18:36:24.530Z,1.50
2023-04-17T18:38:52.539Z,1.98
2023-04-17T18:41:22.966Z,1.33
2023-04-17T18:43:51.038Z,1.50
2023-04-17T18:46:19.250Z,1.48
2023-04-17T18:48:47.311Z,1.38
2023-04-17T18:51:15.624Z,1.50
2023-04-17T18:53:43.721Z,1.27
2023-04-17T18:56:13.783Z,1.48
2023-04-17T18:58:43.280Z,1.25
2023-04-17T19:01:11.408Z,1.33
2023-04-17T19:03:39.858Z,1.52
2023-04-17T19:06:07.952Z,1.50
2023-04-17T19:08:36.116Z,1.40
2023-04-17T19:11:04.087Z,1.33
2023-04-17T19:13:32.197Z,1.05
2023-04-17T19:16:01.547Z,1.17
2023-04-17T19:18:29.641Z,0.82
2023-04-17T19:20:57.798Z,1.20
2023-04-17T19:23:25.796Z,1.20
2023-04-17T19:25:55.008Z,1.30
2023-04-17T19:28:23.814Z,1.20
2023-04-17T19:30:51.926Z,1.52
2023-04-17T19:33:23.874Z,0.90
2023-04-17T19:35:52.327Z,1.48
2023-04-17T19:38:20.248Z,1.40
2023-04-17T19:41:08.367Z,1.10
2023-04-17T19:43:36.337Z,1.20
2023-04-17T19:46:04.486Z,1.52
2023-04-17T19:48:33.832Z,1.27
2023-04-17T19:51:04.153Z,1.20
2023-04-17T19:53:32.466Z,1.00
2023-04-17T19:56:00.357Z,1.00
2023-04-17T19:58:28.432Z,0.80
2023-04-17T20:00:56.434Z,1.02
2023-04-17T20:03:24.729Z,1.15
2023-04-17T20:05:54.599Z,1.10
2023-04-17T20:08:22.769Z,1.00
2023-04-17T20:10:50.786Z,0.90
2023-04-17T20:13:18.778Z,1.20
2023-04-17T20:15:46.820Z,1.20
2023-04-17T20:18:14.860Z,1.02
2023-04-17T20:20:42.913Z,0.90
2023-04-17T20:23:12.275Z,0.95
2023-04-17T20:25:40.354Z,1.27
2023-04-17T20:28:08.279Z,1.10
2023-04-17T20:30:36.400Z,1.00
2023-04-17T20:33:04.585Z,1.35
2023-04-17T20:35:32.748Z,1.00
2023-04-17T20:38:00.621Z,1.40
2023-04-17T20:40:30.029Z,0.98
2023-04-17T20:42:58.049Z,0.70
2023-04-17T20:45:26.060Z,0.90
2023-04-17T20:47:56.965Z,0.98
2023-04-17T20:50:25.528Z,0.95
2023-04-17T20:52:53.541Z,1.10
2023-04-17T20:55:21.612Z,0.88
2023-04-17T20:57:50.979Z,0.93
2023-04-17T21:00:19.338Z,0.65
2023-04-17T21:02:47.484Z,1.10
2023-04-17T21:05:15.529Z,0.90
2023-04-17T21:07:43.561Z,0.90
2023-04-17T21:10:11.613Z,1.00
2023-04-17T21:12:39.712Z,0.85
2023-04-17T21:15:10.636Z,0.80
2023-04-17T21:17:38.865Z,0.70
2023-04-17T21:20:07.957Z,1.13
2023-04-17T21:22:37.076Z,0.95
2023-04-17T21:25:05.881Z,0.90
2023-04-17T21:27:33.824Z,1.02
2023-04-17T21:30:01.783Z,1.00
2023-04-17T21:32:31.145Z,0.82
2023-04-17T21:34:59.027Z,0.95
2023-04-17T21:37:27.086Z,0.95
2023-04-17T21:39:55.184Z,0.77
2023-04-17T21:42:25.642Z,0.70
2023-04-17T21:44:53.660Z,0.90
2023-04-17T21:47:21.685Z,1.13
2023-04-17T21:49:51.198Z,0.93
2023-04-17T21:52:19.197Z,0.93
2023-04-17T21:54:47.251Z,0.95
2023-04-17T21:57:15.378Z,1.20
2023-04-17T21:59:43.372Z,0.82
2023-04-17T22:02:12.639Z,0.75
2023-04-17T22:04:40.543Z,0.90
2023-04-17T22:07:10.128Z,1.20
2023-04-17T22:09:38.170Z,1.00
2023-04-17T22:12:12.518Z,0.82
2023-04-17T22:14:40.704Z,1.20
2023-04-17T22:17:08.663Z,1.17
2023-04-17T22:19:36.641Z,1.40
2023-04-17T22:22:04.737Z,1.20
2023-04-17T22:24:34.024Z,0.73
2023-04-17T22:27:02.064Z,1.30
2023-04-17T22:29:30.021Z,1.17
2023-04-17T22:31:57.948Z,1.02
2023-04-17T22:34:26.109Z,1.45
2023-04-17T22:36:54.054Z,1.05
2023-04-17T22:39:22.497Z,1.00
2023-04-17T22:41:51.993Z,1.30
2023-04-17T22:44:22.552Z,1.42
2023-04-17T22:46:50.544Z,1.23
2023-04-17T22:49:19.714Z,1.00
2023-04-17T22:51:48.212Z,1.10
2023-04-17T22:54:22.687Z,1.00
2023-04-17T22:56:52.406Z,1.17
2023-04-17T22:59:20.325Z,1.10
2023-04-17T23:01:48.375Z,1.10
2023-04-17T23:04:16.608Z,1.25
2023-04-17T23:06:44.615Z,1.15
2023-04-17T23:09:12.725Z,1.00
2023-04-17T23:11:41.000Z,1.10
2023-04-17T23:14:11.312Z,0.80
2023-04-17T23:16:39.625Z,1.23
2023-04-17T23:19:07.562Z,0.90
2023-04-17T23:21:35.586Z,0.90
2023-04-17T23:24:03.517Z,1.00
2023-04-17T23:26:31.433Z,0.93
2023-04-17T23:28:59.455Z,1.10
2023-04-17T23:31:28.893Z,1.15
2023-04-17T23:33:57.032Z,1.05
2023-04-17T23:36:25.154Z,0.73
2023-04-17T23:38:53.781Z,1.08
2023-04-17T23:41:21.729Z,0.88
2023-04-17T23:43:51.332Z,0.60
2023-04-17T23:46:19.577Z,0.80
2023-04-17T23:48:48.932Z,1.02
2023-04-17T23:51:17.016Z,1.20
2023-04-17T23:53:45.323Z,1.23
2023-04-17T23:56:13.344Z,1.00
2023-04-17T23:58:41.286Z,0.90
